Terminal Aerodrome Forecast
Issued by NWS Charleston, SC

Home | Current Version | Previous Version | Text Only | Print | Product List | Glossary On
Versions: 1 2 3 4 5 6 7 8 9 10 11 12 13 14 15 16 17 18 19 20 21 22 23
493
FTUS42 KCHS 221749
TAFCHS
TAF
KCHS 221749Z 2218/2318 19011KT P6SM -SHRA SCT010 BKN025
      TEMPO 2218/2221 3SM -SHRA BKN008 OVC012
     FM222100 18018G28KT P6SM -SHRA VCTS SCT015 BKN025CB
      TEMPO 2223/2303 VRB20G30KT 3SM TSRA SCT008 OVC012CB
     FM230300 22012G18KT P6SM -SHRA OVC025
     FM230900 23009KT P6SM SCT250=

USA.gov is the U.S. government's official web portal to all federal, state and local government web resources and services.